Time,TemperatureF,DewpointF,PressureIn,WindDirection,WindDirectionDegrees,WindSpeedMPH,WindSpeedGustMPH,Humidity,HourlyPrecipIn,Conditions,Clouds,dailyrainin,SoftwareType,DateUTC
2013-03-06 00:02:00,63.0,56.0,29.99,SW,217,3.0,6.0,79,0.00,,,0.00,,2013-03-06 05:02:00,
2013-03-06 00:12:00,63.0,56.0,29.99,SW,217,3.0,6.0,79,0.00,,,0.00,,2013-03-06 05:12:00,
2013-03-06 00:22:00,64.0,58.0,29.98,WSW,241,3.0,7.0,80,0.00,,,0.00,,2013-03-06 05:22:00,
2013-03-06 00:32:00,64.0,58.0,29.98,WSW,241,3.0,7.0,80,0.00,,,0.00,,2013-03-06 05:32:00,
2013-03-06 00:42:00,64.0,58.0,29.98,WSW,241,3.0,7.0,80,0.00,,,0.00,,2013-03-06 05:42:00,
2013-03-06 00:52:00,64.0,58.0,29.97,South,182,1.0,6.0,81,0.00,,,0.00,,2013-03-06 05:52:00,
2013-03-06 01:02:00,64.0,58.0,29.97,South,182,1.0,6.0,81,0.00,,,0.00,,2013-03-06 06:02:00,
2013-03-06 01:11:00,64.0,58.0,29.97,South,182,1.0,6.0,81,0.00,,,0.00,,2013-03-06 06:11:00,
2013-03-06 01:22:00,63.0,58.0,29.96,SSW,210,2.0,11.0,83,0.00,,,0.00,,2013-03-06 06:22:00,
2013-03-06 01:32:00,63.0,58.0,29.96,SSW,210,2.0,11.0,83,0.00,,,0.00,,2013-03-06 06:32:00,
2013-03-06 01:42:00,63.0,58.0,29.96,SSW,210,2.0,11.0,83,0.00,,,0.00,,2013-03-06 06:42:00,
2013-03-06 01:52:00,63.0,58.0,29.95,SSW,212,1.0,6.0,84,0.00,,,0.00,,2013-03-06 06:52:00,
2013-03-06 02:01:00,63.0,58.0,29.95,SSW,212,1.0,6.0,84,0.00,,,0.00,,2013-03-06 07:01:00,
2013-03-06 02:11:00,63.0,58.0,29.95,SSW,212,1.0,6.0,84,0.00,,,0.00,,2013-03-06 07:11:00,
2013-03-06 02:22:00,63.0,58.0,29.94,SW,224,5.0,10.0,85,0.00,,,0.00,,2013-03-06 07:22:00,
2013-03-06 02:32:00,63.0,58.0,29.94,SW,224,5.0,10.0,85,0.00,,,0.00,,2013-03-06 07:32:00,
2013-03-06 02:42:00,63.0,58.0,29.94,SW,224,5.0,10.0,85,0.00,,,0.00,,2013-03-06 07:42:00,
2013-03-06 02:52:00,62.0,58.0,29.92,SW,222,2.0,8.0,87,0.00,,,0.00,,2013-03-06 07:52:00,
2013-03-06 03:01:00,62.0,58.0,29.92,SW,222,2.0,8.0,87,0.00,,,0.00,,2013-03-06 08:01:00,
2013-03-06 03:11:00,62.0,58.0,29.92,SW,222,2.0,8.0,87,0.00,,,0.00,,2013-03-06 08:11:00,
2013-03-06 03:21:00,62.0,59.0,29.92,WSW,243,1.0,11.0,89,0.00,,,0.00,,2013-03-06 08:21:00,
2013-03-06 03:32:00,62.0,59.0,29.92,WSW,243,1.0,11.0,89,0.00,,,0.00,,2013-03-06 08:32:00,
2013-03-06 03:42:00,62.0,59.0,29.92,WSW,243,1.0,11.0,89,0.00,,,0.00,,2013-03-06 08:42:00,
2013-03-06 03:52:00,62.0,59.0,29.91,WSW,246,2.0,10.0,90,0.00,,,0.00,,2013-03-06 08:52:00,
2013-03-06 04:01:00,62.0,59.0,29.91,WSW,246,2.0,10.0,90,0.00,,,0.00,,2013-03-06 09:01:00,
2013-03-06 04:12:00,62.0,59.0,29.91,WSW,246,2.0,10.0,90,0.00,,,0.00,,2013-03-06 09:12:00,
2013-03-06 04:21:00,62.0,60.0,29.90,SW,215,4.0,8.0,92,0.00,,,0.00,,2013-03-06 09:21:00,
2013-03-06 04:32:00,62.0,60.0,29.90,SW,215,4.0,8.0,92,0.00,,,0.00,,2013-03-06 09:32:00,
2013-03-06 04:42:00,62.0,60.0,29.90,SW,215,4.0,8.0,92,0.00,,,0.00,,2013-03-06 09:42:00,
2013-03-06 04:52:00,62.0,60.0,29.90,SSW,193,1.0,5.0,92,0.00,,,0.00,,2013-03-06 09:52:00,
2013-03-06 05:01:00,62.0,60.0,29.90,SSW,193,1.0,5.0,92,0.00,,,0.00,,2013-03-06 10:01:00,
2013-03-06 05:11:00,62.0,60.0,29.90,SSW,193,1.0,5.0,92,0.00,,,0.00,,2013-03-06 10:11:00,
2013-03-06 05:22:00,62.0,60.0,29.91,SW,232,1.0,4.0,92,0.00,,,0.00,,2013-03-06 10:22:00,
2013-03-06 05:32:00,62.0,60.0,29.91,SW,232,1.0,4.0,92,0.00,,,0.00,,2013-03-06 10:32:00,
2013-03-06 05:42:00,62.0,60.0,29.91,SW,232,1.0,4.0,92,0.00,,,0.00,,2013-03-06 10:42:00,
2013-03-06 05:52:00,63.0,61.0,29.93,SW,227,6.0,12.0,94,0.00,,,0.00,,2013-03-06 10:52:00,
2013-03-06 06:02:00,63.0,61.0,29.93,SW,227,6.0,12.0,94,0.00,,,0.00,,2013-03-06 11:02:00,
2013-03-06 06:11:00,63.0,61.0,29.93,SW,227,6.0,12.0,94,0.00,,,0.00,,2013-03-06 11:11:00,
2013-03-06 06:22:00,63.0,60.0,29.93,SW,230,2.0,17.0,89,0.00,,,0.00,,2013-03-06 11:22:00,
2013-03-06 06:32:00,63.0,60.0,29.93,SW,230,2.0,17.0,89,0.00,,,0.00,,2013-03-06 11:32:00,
2013-03-06 06:42:00,63.0,60.0,29.93,SW,230,2.0,17.0,89,0.00,,,0.00,,2013-03-06 11:42:00,
2013-03-06 06:52:00,62.0,55.0,29.95,WNW,287,5.0,11.0,77,0.00,,,0.00,,2013-03-06 11:52:00,
2013-03-06 07:02:00,62.0,55.0,29.95,WNW,287,5.0,11.0,77,0.00,,,0.00,,2013-03-06 12:02:00,
2013-03-06 07:12:00,62.0,55.0,29.95,WNW,287,5.0,11.0,77,0.00,,,0.00,,2013-03-06 12:12:00,
2013-03-06 07:22:00,61.0,54.0,29.97,NW,319,9.0,20.0,77,0.00,,,0.00,,2013-03-06 12:22:00,
2013-03-06 07:33:00,61.0,54.0,29.97,NW,319,9.0,20.0,77,0.00,,,0.00,,2013-03-06 12:33:00,
2013-03-06 07:43:00,61.0,54.0,29.97,NW,319,9.0,20.0,77,0.00,,,0.00,,2013-03-06 12:43:00,
2013-03-06 07:53:00,55.0,37.0,30.02,NNW,342,7.0,18.0,50,0.00,,,0.00,,2013-03-06 12:53:00,
2013-03-06 08:02:00,55.0,37.0,30.02,NNW,342,7.0,18.0,50,0.00,,,0.00,,2013-03-06 13:02:00,
2013-03-06 08:12:00,55.0,37.0,30.02,NNW,342,7.0,18.0,50,0.00,,,0.00,,2013-03-06 13:12:00,
2013-03-06 08:22:00,52.0,31.0,30.04,WNW,288,12.0,22.0,44,0.00,,,0.00,,2013-03-06 13:22:00,
2013-03-06 08:32:00,52.0,31.0,30.04,WNW,288,12.0,22.0,44,0.00,,,0.00,,2013-03-06 13:32:00,
2013-03-06 08:42:00,52.0,31.0,30.04,WNW,288,12.0,22.0,44,0.00,,,0.00,,2013-03-06 13:42:00,
2013-03-06 08:52:00,51.0,31.0,30.07,WNW,282,11.0,21.0,47,0.00,,,0.00,,2013-03-06 13:52:00,
2013-03-06 09:01:00,51.0,31.0,30.07,WNW,282,11.0,21.0,47,0.00,,,0.00,,2013-03-06 14:01:00,
2013-03-06 09:11:00,51.0,31.0,30.07,WNW,282,11.0,21.0,47,0.00,,,0.00,,2013-03-06 14:11:00,
2013-03-06 09:22:00,52.0,33.0,30.06,West,280,3.0,13.0,49,0.00,,,0.00,,2013-03-06 14:22:00,
2013-03-06 09:32:00,52.0,33.0,30.06,West,280,3.0,13.0,49,0.00,,,0.00,,2013-03-06 14:32:00,
2013-03-06 09:42:00,52.0,33.0,30.06,West,280,3.0,13.0,49,0.00,,,0.00,,2013-03-06 14:42:00,
2013-03-06 09:53:00,53.0,33.0,30.06,North,360,5.0,14.0,47,0.00,,,0.00,,2013-03-06 14:53:00,
2013-03-06 10:02:00,53.0,33.0,30.06,North,360,5.0,14.0,47,0.00,,,0.00,,2013-03-06 15:02:00,
2013-03-06 10:12:00,53.0,33.0,30.06,North,360,5.0,14.0,47,0.00,,,0.00,,2013-03-06 15:12:00,
2013-03-06 10:22:00,54.0,33.0,30.06,West,281,11.0,18.0,45,0.00,,,0.00,,2013-03-06 15:22:00,
2013-03-06 10:32:00,54.0,33.0,30.06,West,281,11.0,18.0,45,0.00,,,0.00,,2013-03-06 15:32:00,
2013-03-06 10:42:00,54.0,33.0,30.06,West,281,11.0,18.0,45,0.00,,,0.00,,2013-03-06 15:42:00,
2013-03-06 10:52:00,55.0,31.0,30.06,WNW,301,10.0,19.0,40,0.00,,,0.00,,2013-03-06 15:52:00,
2013-03-06 11:02:00,55.0,31.0,30.06,WNW,301,10.0,19.0,40,0.00,,,0.00,,2013-03-06 16:02:00,
2013-03-06 11:12:00,55.0,31.0,30.06,WNW,301,10.0,19.0,40,0.00,,,0.00,,2013-03-06 16:12:00,
2013-03-06 11:21:00,56.0,31.0,30.04,NNW,340,6.0,19.0,39,0.00,,,0.00,,2013-03-06 16:21:00,
2013-03-06 11:32:00,56.0,31.0,30.04,NNW,340,6.0,19.0,39,0.00,,,0.00,,2013-03-06 16:32:00,
2013-03-06 11:42:00,56.0,31.0,30.04,NNW,340,6.0,19.0,39,0.00,,,0.00,,2013-03-06 16:42:00,
2013-03-06 11:52:00,58.0,29.0,30.03,WSW,257,7.0,17.0,33,0.00,,,0.00,,2013-03-06 16:52:00,
2013-03-06 12:01:00,58.0,29.0,30.03,WSW,257,7.0,17.0,33,0.00,,,0.00,,2013-03-06 17:01:00,
2013-03-06 12:11:00,58.0,29.0,30.03,WSW,257,7.0,17.0,33,0.00,,,0.00,,2013-03-06 17:11:00,
2013-03-06 12:22:00,60.0,29.0,30.01,South,176,3.0,16.0,31,0.00,,,0.00,,2013-03-06 17:22:00,
2013-03-06 12:32:00,60.0,29.0,30.01,South,176,3.0,16.0,31,0.00,,,0.00,,2013-03-06 17:32:00,
2013-03-06 12:42:00,60.0,29.0,30.01,South,176,3.0,16.0,31,0.00,,,0.00,,2013-03-06 17:42:00,
2013-03-06 12:53:00,62.0,29.0,29.99,SW,215,7.0,17.0,28,0.00,,,0.00,,2013-03-06 17:53:00,
2013-03-06 13:02:00,62.0,29.0,29.99,SW,215,7.0,17.0,28,0.00,,,0.00,,2013-03-06 18:02:00,
2013-03-06 13:29:00,63.0,29.0,29.98,NW,323,11.0,17.0,28,0.00,,,0.00,,2013-03-06 18:29:00,
2013-03-06 13:42:00,63.0,29.0,29.98,NW,323,11.0,17.0,28,0.00,,,0.00,,2013-03-06 18:42:00,
2013-03-06 13:53:00,65.0,32.0,29.96,West,280,10.0,17.0,29,0.00,,,0.00,,2013-03-06 18:53:00,
2013-03-06 14:02:00,65.0,32.0,29.96,West,280,10.0,17.0,29,0.00,,,0.00,,2013-03-06 19:02:00,
2013-03-06 14:11:00,65.0,32.0,29.96,West,280,10.0,17.0,29,0.00,,,0.00,,2013-03-06 19:11:00,
2013-03-06 14:22:00,66.0,32.0,29.95,WNW,288,9.0,18.0,28,0.00,,,0.00,,2013-03-06 19:22:00,
2013-03-06 14:32:00,66.0,32.0,29.95,WNW,288,9.0,18.0,28,0.00,,,0.00,,2013-03-06 19:32:00,
2013-03-06 14:43:00,66.0,32.0,29.95,WNW,288,9.0,18.0,28,0.00,,,0.00,,2013-03-06 19:43:00,
2013-03-06 14:53:00,66.0,32.0,29.93,NW,311,7.0,19.0,28,0.00,,,0.00,,2013-03-06 19:53:00,
2013-03-06 15:02:00,66.0,32.0,29.93,NW,311,7.0,19.0,28,0.00,,,0.00,,2013-03-06 20:02:00,
2013-03-06 15:12:00,66.0,32.0,29.93,NW,311,7.0,19.0,28,0.00,,,0.00,,2013-03-06 20:12:00,
2013-03-06 15:22:00,66.0,32.0,29.93,WNW,288,6.0,16.0,28,0.00,,,0.00,,2013-03-06 20:22:00,
2013-03-06 15:32:00,66.0,32.0,29.93,WNW,288,6.0,16.0,28,0.00,,,0.00,,2013-03-06 20:32:00,
2013-03-06 15:43:00,66.0,32.0,29.93,WNW,288,6.0,16.0,28,0.00,,,0.00,,2013-03-06 20:43:00,
2013-03-06 15:53:00,66.0,33.0,29.92,WNW,299,3.0,17.0,29,0.00,,,0.00,,2013-03-06 20:53:00,
2013-03-06 16:02:00,66.0,33.0,29.92,WNW,299,3.0,17.0,29,0.00,,,0.00,,2013-03-06 21:02:00,
2013-03-06 16:12:00,66.0,33.0,29.92,WNW,299,3.0,17.0,29,0.00,,,0.00,,2013-03-06 21:12:00,
2013-03-06 16:22:00,67.0,33.0,29.92,SSW,202,3.0,22.0,28,0.00,,,0.00,,2013-03-06 21:22:00,
2013-03-06 16:32:00,67.0,33.0,29.92,SSW,202,3.0,22.0,28,0.00,,,0.00,,2013-03-06 21:32:00,
2013-03-06 16:42:00,67.0,33.0,29.92,SSW,202,3.0,22.0,28,0.00,,,0.00,,2013-03-06 21:42:00,
2013-03-06 16:52:00,66.0,33.0,29.92,WSW,257,6.0,17.0,29,0.00,,,0.00,,2013-03-06 21:52:00,
2013-03-06 17:02:00,66.0,33.0,29.92,WSW,257,6.0,17.0,29,0.00,,,0.00,,2013-03-06 22:02:00,
2013-03-06 17:12:00,66.0,33.0,29.92,WSW,257,6.0,17.0,29,0.00,,,0.00,,2013-03-06 22:12:00,
2013-03-06 17:22:00,65.0,34.0,29.93,South,172,10.0,18.0,31,0.00,,,0.00,,2013-03-06 22:22:00,
2013-03-06 17:32:00,65.0,34.0,29.93,South,172,10.0,18.0,31,0.00,,,0.00,,2013-03-06 22:32:00,
2013-03-06 17:42:00,65.0,34.0,29.93,South,172,10.0,18.0,31,0.00,,,0.00,,2013-03-06 22:42:00,
2013-03-06 17:52:00,64.0,34.0,29.93,WNW,296,6.0,17.0,32,0.00,,,0.00,,2013-03-06 22:52:00,
2013-03-06 18:01:00,64.0,34.0,29.93,WNW,296,6.0,17.0,32,0.00,,,0.00,,2013-03-06 23:01:00,
2013-03-06 18:11:00,64.0,34.0,29.93,WNW,296,6.0,17.0,32,0.00,,,0.00,,2013-03-06 23:11:00,
2013-03-06 18:22:00,62.0,35.0,29.95,NNW,333,4.0,13.0,36,0.00,,,0.00,,2013-03-06 23:22:00,
2013-03-06 18:32:00,62.0,35.0,29.95,NNW,333,4.0,13.0,36,0.00,,,0.00,,2013-03-06 23:32:00,
2013-03-06 18:42:00,62.0,35.0,29.95,NNW,333,4.0,13.0,36,0.00,,,0.00,,2013-03-06 23:42:00,
2013-03-06 18:52:00,59.0,37.0,29.97,West,277,4.0,14.0,43,0.00,,,0.00,,2013-03-06 23:52:00,
2013-03-06 19:02:00,59.0,37.0,29.97,West,277,4.0,14.0,43,0.00,,,0.00,,2013-03-07 00:02:00,
2013-03-06 19:11:00,59.0,37.0,29.97,West,277,4.0,14.0,43,0.00,,,0.00,,2013-03-07 00:11:00,
2013-03-06 19:22:00,57.0,36.0,30.00,West,264,8.0,14.0,46,0.00,,,0.00,,2013-03-07 00:22:00,
2013-03-06 19:32:00,57.0,36.0,30.00,West,264,8.0,14.0,46,0.00,,,0.00,,2013-03-07 00:32:00,
2013-03-06 19:42:00,57.0,36.0,30.00,West,264,8.0,14.0,46,0.00,,,0.00,,2013-03-07 00:42:00,
2013-03-06 19:52:00,55.0,36.0,30.01,WNW,282,3.0,14.0,49,0.00,,,0.00,,2013-03-07 00:52:00,
2013-03-06 20:01:00,55.0,36.0,30.01,WNW,282,3.0,14.0,49,0.00,,,0.00,,2013-03-07 01:01:00,
2013-03-06 20:12:00,55.0,36.0,30.01,WNW,282,3.0,14.0,49,0.00,,,0.00,,2013-03-07 01:12:00,
2013-03-06 20:21:00,54.0,36.0,30.03,WSW,258,4.0,17.0,51,0.00,,,0.00,,2013-03-07 01:21:00,
2013-03-06 20:32:00,54.0,36.0,30.03,WSW,258,4.0,17.0,51,0.00,,,0.00,,2013-03-07 01:32:00,
2013-03-06 20:42:00,54.0,36.0,30.03,WSW,258,4.0,17.0,51,0.00,,,0.00,,2013-03-07 01:42:00,
2013-03-06 20:52:00,53.0,36.0,30.04,WNW,301,4.0,8.0,53,0.00,,,0.00,,2013-03-07 01:52:00,
2013-03-06 21:01:00,53.0,36.0,30.04,WNW,301,4.0,8.0,53,0.00,,,0.00,,2013-03-07 02:01:00,
2013-03-06 21:11:00,53.0,36.0,30.04,WNW,301,4.0,8.0,53,0.00,,,0.00,,2013-03-07 02:11:00,
2013-03-06 21:21:00,53.0,36.0,30.06,West,265,2.0,9.0,53,0.00,,,0.00,,2013-03-07 02:21:00,
2013-03-06 21:32:00,53.0,36.0,30.06,West,265,2.0,9.0,53,0.00,,,0.00,,2013-03-07 02:32:00,
2013-03-06 21:42:00,53.0,36.0,30.06,West,265,2.0,9.0,53,0.00,,,0.00,,2013-03-07 02:42:00,
2013-03-06 21:52:00,53.0,36.0,30.06,West,265,2.0,9.0,53,0.00,,,0.00,,2013-03-07 02:52:00,
2013-03-06 22:02:00,53.0,37.0,30.07,West,271,4.0,12.0,54,0.00,,,0.00,,2013-03-07 03:02:00,
2013-03-06 22:12:00,52.0,36.0,30.09,West,265,3.0,7.0,55,0.00,,,0.00,,2013-03-07 03:12:00,
2013-03-06 22:22:00,52.0,36.0,30.09,West,265,3.0,7.0,55,0.00,,,0.00,,2013-03-07 03:22:00,
2013-03-06 22:32:00,52.0,36.0,30.09,West,265,3.0,7.0,55,0.00,,,0.00,,2013-03-07 03:32:00,
2013-03-06 22:42:00,52.0,36.0,30.09,West,265,3.0,7.0,55,0.00,,,0.00,,2013-03-07 03:42:00,
2013-03-06 22:52:00,51.0,36.0,30.10,North,353,3.0,7.0,57,0.00,,,0.00,,2013-03-07 03:52:00,
2013-03-06 23:02:00,51.0,36.0,30.10,North,353,3.0,7.0,57,0.00,,,0.00,,2013-03-07 04:02:00,
2013-03-06 23:12:00,51.0,36.0,30.10,North,353,3.0,7.0,57,0.00,,,0.00,,2013-03-07 04:12:00,
2013-03-06 23:22:00,51.0,36.0,30.11,NW,305,3.0,7.0,56,0.00,,,0.00,,2013-03-07 04:22:00,
2013-03-06 23:32:00,51.0,36.0,30.11,NW,305,3.0,7.0,56,0.00,,,0.00,,2013-03-07 04:32:00,
2013-03-06 23:42:00,51.0,36.0,30.11,NW,305,3.0,7.0,56,0.00,,,0.00,,2013-03-07 04:42:00,
2013-03-06 23:52:00,50.0,33.0,30.11,North,360,3.0,7.0,52,0.00,,,0.00,,2013-03-07 04:52:00,